Voidomatis — A8FX2 — position and weather

sailwx.info

Track history (hours):
 
Tides and Currents Weather Stations Pressure Air Temp Water Temp Dewpoint Dewpoint Depression Visibility Wind Speed Wind Dir Waves Ship Positions

Voidomatis

Last reported at 2014-Sep-17 12:33 UTC. Time now 2014-Sep-30 13:55 UTC.
Position N 57°37' E 007°56'.
Warning: this ship's position is 13 days out of date.

Length 213 m; draft 12.1 m.

Type: Tanker. MMSI: 636012508.

Date/timePositionNaut miles runAvg speedWind from/ knotsBaromVisibWave heightAir tempDewpointWater temp
2014-Sep-17 12:33N 57°37' E 007°56'4912.1
2014-Sep-17 08:33N 57°44' E 009°26'1212.4
2014-Sep-17 07:33N 57°47' E 009°48'1313.2
2014-Sep-17 06:33N 57°48' E 010°13'1413.7
2014-Sep-17 05:33N 57°48' E 010°38'1010.4
2014-Sep-17 04:33N 57°43' E 010°56'1211.9
2014-Sep-17 03:33N 57°35' E 011°12'1212.0
2014-Sep-17 02:33N 57°26' E 011°28'1211.8
2014-Sep-17 01:33N 57°15' E 011°35'1211.7
2014-Sep-17 00:32N 57°04' E 011°42'1111.5
2014-Sep-16 23:33N 56°53' E 011°48'1111.1
2014-Sep-16 22:33N 56°42' E 011°51'1212.4
2014-Sep-16 21:33N 56°31' E 011°40'1312.1
2014-Sep-16 20:29N 56°20' E 011°29'1112.2
2014-Sep-16 19:33N 56°11' E 011°18'9510.5
2014-Sep-16 10:33N 54°36' E 011°01'1212.2
2014-Sep-16 09:33N 54°33' E 011°21'1212.1
2014-Sep-16 08:33N 54°28' E 011°40'1211.8
2014-Sep-16 07:33N 54°26' E 011°60'10 9.7
2014-Sep-16 06:34N 54°32' E 012°14'10 9.9
2014-Sep-16 05:32N 54°40' E 012°25'1111.6
2014-Sep-16 04:33N 54°46' E 012°42'1111.6
2014-Sep-16 03:33N 54°51' E 012°60'1312.0
2014-Sep-16 02:30N 54°55' E 013°20'1111.8
2014-Sep-16 01:33N 54°59' E 013°38'1211.6
2014-Sep-16 00:33N 55°03' E 013°57'1111.2
2014-Sep-15 23:33N 55°10' E 014°12'1212.0
2014-Sep-15 22:33N 55°19' E 014°26'1211.8
2014-Sep-15 21:33N 55°28' E 014°40'1211.8
2014-Sep-15 20:33N 55°33' E 014°59'1211.9
2014-Sep-15 19:33N 55°39' E 015°18'5911.8
2014-Sep-15 14:31N 55°53' E 017°00'1111.8
2014-Sep-15 13:33N 55°56' E 017°20'1511.8
2014-Sep-15 12:16N 56°01' E 017°45'1411.9
2014-Sep-15 11:04N 56°08' E 018°07'612.0
2014-Sep-15 10:33N 56°11' E 018°16'1711.9
2014-Sep-15 09:07N 56°21' E 018°43'1312.1
2014-Sep-15 08:04N 56°32' E 018°54'712.2
2014-Sep-15 07:28N 56°38' E 019°01'1212.2
2014-Sep-15 06:29N 56°48' E 019°11'1512.1
2014-Sep-15 05:16N 57°01' E 019°25'912.1
2014-Sep-15 04:32N 57°09' E 019°33'18411.3
2014-Sep-14 12:14N 59°26' E 023°27'3211.9
2014-Sep-14 09:33N 59°31' E 024°29'1 0.6
2014-Sep-14 08:23N 59°31' E 024°31'0 0.2
2014-Sep-14 07:32N 59°31' E 024°30'0 0.0
2014-Sep-14 06:32N 59°31' E 024°30'0 0.0
2014-Sep-14 05:29N 59°31' E 024°30'5 5.4
2014-Sep-14 04:33N 59°34' E 024°23'1010.2
2014-Sep-14 03:33N 59°38' E 024°42'  
2014-Sep-11 07:33N 59°35' E 024°54'10 9.9
2014-Sep-11 06:32N 59°41' E 024°39'1111.5
2014-Sep-11 05:33N 59°41' E 024°16'1412.6
2014-Sep-11 04:26N 59°37' E 023°50'1112.7
2014-Sep-11 03:33N 59°34' E 023°28'31112.4
2014-Sep-10 02:32N 55°58' E 016°30'5412.7
2014-Sep-09 22:16N 55°32' E 015°05'912.7
2014-Sep-09 21:33N 55°27' E 014°51'1212.5
2014-Sep-09 20:33N 55°20' E 014°34'1212.3
2014-Sep-09 19:33N 55°11' E 014°20'1212.0
2014-Sep-09 18:33N 55°10' E 013°59'1312.7
2014-Sep-09 17:33N 55°12' E 013°37'1312.8
2014-Sep-09 16:33N 55°13' E 013°15'1313.1
2014-Sep-09 15:33N 55°15' E 012°52'10 9.7
2014-Sep-09 14:33N 55°21' E 012°39'1211.8
2014-Sep-09 13:33N 55°33' E 012°42'1111.2
2014-Sep-09 12:33N 55°44' E 012°41'1313.1
2014-Sep-09 11:33N 55°57' E 012°38'1111.4
2014-Sep-09 10:33N 56°07' E 012°30'1212.3
2014-Sep-09 09:34N 56°14' E 012°12'1211.8
2014-Sep-09 08:33N 56°24' E 012°00'1312.7
2014-Sep-09 07:33N 56°37' E 011°56'1413.1
2014-Sep-09 06:31N 56°50' E 011°49'1212.9
2014-Sep-09 05:33N 57°02' E 011°42'1312.7
2014-Sep-09 04:33N 57°14' E 011°34'1312.7
2014-Sep-09 03:33N 57°26' E 011°26'1212.5
2014-Sep-09 02:33N 57°35' E 011°10'1312.9
2014-Sep-09 01:33N 57°44' E 010°52'1212.2
2014-Sep-09 00:33N 57°48' E 010°31'38310.8
2014-Sep-07 13:10N 52°31' E 004°13'712.0
2014-Sep-07 12:34N 52°29' E 004°25'  
Track history (hours):
 
Tides and Currents Weather Stations Pressure Air Temp Water Temp Dewpoint Dewpoint Depression Visibility Wind Speed Wind Dir Waves Ship Positions

Voidomatis

Last reported at 2014-Sep-17 12:33 UTC. Time now 2014-Sep-30 13:55 UTC.
Position N 57°37' E 007°56'.
Warning: this ship's position is 13 days out of date.

Length 213 m; draft 12.1 m.

Type: Tanker. MMSI: 636012508.

Date/timePositionNaut miles runAvg speedWind from/ knotsBaromVisibWave heightAir tempDewpointWater temp
2014-Sep-17 12:33N 57°37' E 007°56'4912.1
2014-Sep-17 08:33N 57°44' E 009°26'1212.4
2014-Sep-17 07:33N 57°47' E 009°48'1313.2
2014-Sep-17 06:33N 57°48' E 010°13'1413.7
2014-Sep-17 05:33N 57°48' E 010°38'1010.4
2014-Sep-17 04:33N 57°43' E 010°56'1211.9
2014-Sep-17 03:33N 57°35' E 011°12'1212.0
2014-Sep-17 02:33N 57°26' E 011°28'1211.8
2014-Sep-17 01:33N 57°15' E 011°35'1211.7
2014-Sep-17 00:32N 57°04' E 011°42'1111.5
2014-Sep-16 23:33N 56°53' E 011°48'1111.1
2014-Sep-16 22:33N 56°42' E 011°51'1212.4
2014-Sep-16 21:33N 56°31' E 011°40'1312.1
2014-Sep-16 20:29N 56°20' E 011°29'1112.2
2014-Sep-16 19:33N 56°11' E 011°18'9510.5
2014-Sep-16 10:33N 54°36' E 011°01'1212.2
2014-Sep-16 09:33N 54°33' E 011°21'1212.1
2014-Sep-16 08:33N 54°28' E 011°40'1211.8
2014-Sep-16 07:33N 54°26' E 011°60'10 9.7
2014-Sep-16 06:34N 54°32' E 012°14'10 9.9
2014-Sep-16 05:32N 54°40' E 012°25'1111.6
2014-Sep-16 04:33N 54°46' E 012°42'1111.6
2014-Sep-16 03:33N 54°51' E 012°60'1312.0
2014-Sep-16 02:30N 54°55' E 013°20'1111.8
2014-Sep-16 01:33N 54°59' E 013°38'1211.6
2014-Sep-16 00:33N 55°03' E 013°57'1111.2
2014-Sep-15 23:33N 55°10' E 014°12'1212.0
2014-Sep-15 22:33N 55°19' E 014°26'1211.8
2014-Sep-15 21:33N 55°28' E 014°40'1211.8
2014-Sep-15 20:33N 55°33' E 014°59'1211.9
2014-Sep-15 19:33N 55°39' E 015°18'5911.8
2014-Sep-15 14:31N 55°53' E 017°00'1111.8
2014-Sep-15 13:33N 55°56' E 017°20'1511.8
2014-Sep-15 12:16N 56°01' E 017°45'1411.9
2014-Sep-15 11:04N 56°08' E 018°07'612.0
2014-Sep-15 10:33N 56°11' E 018°16'1711.9
2014-Sep-15 09:07N 56°21' E 018°43'1312.1
2014-Sep-15 08:04N 56°32' E 018°54'712.2
2014-Sep-15 07:28N 56°38' E 019°01'1212.2
2014-Sep-15 06:29N 56°48' E 019°11'1512.1
2014-Sep-15 05:16N 57°01' E 019°25'912.1
2014-Sep-15 04:32N 57°09' E 019°33'18411.3
2014-Sep-14 12:14N 59°26' E 023°27'3211.9
2014-Sep-14 09:33N 59°31' E 024°29'1 0.6
2014-Sep-14 08:23N 59°31' E 024°31'0 0.2
2014-Sep-14 07:32N 59°31' E 024°30'0 0.0
2014-Sep-14 06:32N 59°31' E 024°30'0 0.0
2014-Sep-14 05:29N 59°31' E 024°30'5 5.4
2014-Sep-14 04:33N 59°34' E 024°23'1010.2
2014-Sep-14 03:33N 59°38' E 024°42'  
2014-Sep-11 07:33N 59°35' E 024°54'10 9.9
2014-Sep-11 06:32N 59°41' E 024°39'1111.5
2014-Sep-11 05:33N 59°41' E 024°16'1412.6
2014-Sep-11 04:26N 59°37' E 023°50'1112.7
2014-Sep-11 03:33N 59°34' E 023°28'31112.4
2014-Sep-10 02:32N 55°58' E 016°30'5412.7
2014-Sep-09 22:16N 55°32' E 015°05'912.7
2014-Sep-09 21:33N 55°27' E 014°51'1212.5
2014-Sep-09 20:33N 55°20' E 014°34'1212.3
2014-Sep-09 19:33N 55°11' E 014°20'1212.0
2014-Sep-09 18:33N 55°10' E 013°59'1312.7
2014-Sep-09 17:33N 55°12' E 013°37'1312.8
2014-Sep-09 16:33N 55°13' E 013°15'1313.1
2014-Sep-09 15:33N 55°15' E 012°52'10 9.7
2014-Sep-09 14:33N 55°21' E 012°39'1211.8
2014-Sep-09 13:33N 55°33' E 012°42'1111.2
2014-Sep-09 12:33N 55°44' E 012°41'1313.1
2014-Sep-09 11:33N 55°57' E 012°38'1111.4
2014-Sep-09 10:33N 56°07' E 012°30'1212.3
2014-Sep-09 09:34N 56°14' E 012°12'1211.8
2014-Sep-09 08:33N 56°24' E 012°00'1312.7
2014-Sep-09 07:33N 56°37' E 011°56'1413.1
2014-Sep-09 06:31N 56°50' E 011°49'1212.9
2014-Sep-09 05:33N 57°02' E 011°42'1312.7
2014-Sep-09 04:33N 57°14' E 011°34'1312.7
2014-Sep-09 03:33N 57°26' E 011°26'1212.5
2014-Sep-09 02:33N 57°35' E 011°10'1312.9
2014-Sep-09 01:33N 57°44' E 010°52'1212.2
2014-Sep-09 00:33N 57°48' E 010°31'38310.8
2014-Sep-07 13:10N 52°31' E 004°13'712.0
2014-Sep-07 12:34N 52°29' E 004°25'  

Dump ship's entire track history